createdAt,value
2022-11-16T00:01:57.402Z,11.80
2022-11-16T00:04:28.186Z,11.70
2022-11-16T00:06:56.440Z,11.60
2022-11-16T00:09:27.012Z,11.60
2022-11-16T00:11:56.568Z,11.80
2022-11-16T00:14:25.956Z,11.80
2022-11-16T00:16:55.712Z,12.00
2022-11-16T00:19:24.310Z,11.90
2022-11-16T00:21:52.759Z,12.00
2022-11-16T00:24:21.706Z,12.10
2022-11-16T00:26:50.104Z,12.10
2022-11-16T00:29:19.252Z,11.80
2022-11-16T00:31:47.757Z,11.60
2022-11-16T00:34:17.403Z,11.70
2022-11-16T00:36:45.795Z,11.60
2022-11-16T00:39:14.031Z,11.60
2022-11-16T00:41:42.188Z,11.70
2022-11-16T00:44:10.523Z,11.50
2022-11-16T00:46:38.819Z,11.80
2022-11-16T00:49:07.054Z,11.90
2022-11-16T00:51:37.074Z,12.00
2022-11-16T00:54:05.996Z,12.30
2022-11-16T00:56:36.454Z,12.30
2022-11-16T00:59:05.632Z,12.30
2022-11-16T01:01:34.068Z,12.20
2022-11-16T01:04:04.988Z,12.30
2022-11-16T01:06:33.049Z,11.90
2022-11-16T01:09:03.311Z,12.10
2022-11-16T01:11:48.999Z,12.00
2022-11-16T01:14:18.404Z,12.20
2022-11-16T01:16:46.553Z,12.00
2022-11-16T01:19:14.673Z,12.00
2022-11-16T01:21:42.917Z,12.10
2022-11-16T01:24:12.439Z,12.00
2022-11-16T01:26:40.489Z,11.90
2022-11-16T01:29:11.044Z,11.70
2022-11-16T01:31:43.583Z,11.50
2022-11-16T01:34:11.746Z,11.50
2022-11-16T01:36:39.820Z,11.40
2022-11-16T01:39:08.757Z,11.40
2022-11-16T01:41:52.073Z,11.10
2022-11-16T01:44:38.913Z,11.30
2022-11-16T01:47:17.740Z,11.20
2022-11-16T01:49:48.995Z,11.20
2022-11-16T01:52:21.519Z,11.30
2022-11-16T01:54:51.111Z,11.50
2022-11-16T01:57:23.341Z,11.60
2022-11-16T02:00:06.994Z,11.80
2022-11-16T02:02:52.909Z,11.80
2022-11-16T02:05:45.604Z,11.90
2022-11-16T02:08:45.731Z,12.10
2022-11-16T02:11:33.350Z,11.90
2022-11-16T02:14:16.661Z,12.00
2022-11-16T02:16:52.955Z,12.00
2022-11-16T02:19:59.786Z,11.80
2022-11-16T02:22:40.751Z,11.80
2022-11-16T02:25:14.176Z,11.70
2022-11-16T02:28:21.545Z,11.60
2022-11-16T02:30:53.943Z,11.70
2022-11-16T02:33:26.992Z,11.80
2022-11-16T02:35:58.433Z,11.80
2022-11-16T02:38:31.560Z,11.90
2022-11-16T02:41:06.123Z,11.90
2022-11-16T02:43:39.918Z,11.90
2022-11-16T02:46:14.624Z,11.90
2022-11-16T02:48:50.489Z,11.80
2022-11-16T02:51:19.992Z,11.60
2022-11-16T02:54:02.345Z,11.70
2022-11-16T02:56:31.919Z,11.70
2022-11-16T02:59:01.249Z,11.70
2022-11-16T03:01:37.942Z,11.50
2022-11-16T03:04:13.978Z,11.60
2022-11-16T03:06:48.119Z,11.60
2022-11-16T03:09:20.382Z,11.70
2022-11-16T03:12:00.537Z,11.70
2022-11-16T03:14:36.969Z,11.70
2022-11-16T03:17:10.955Z,11.80
2022-11-16T03:19:45.312Z,11.90
2022-11-16T03:22:17.308Z,11.70
2022-11-16T03:24:46.017Z,11.70
2022-11-16T03:27:25.713Z,11.60
2022-11-16T03:30:03.665Z,11.70
2022-11-16T03:32:38.922Z,11.50
2022-11-16T03:35:15.638Z,11.50
2022-11-16T03:37:45.844Z,11.50
2022-11-16T03:40:16.944Z,11.40
2022-11-16T03:42:45.813Z,11.40
2022-11-16T03:45:14.607Z,11.00
2022-11-16T03:47:44.774Z,11.10
2022-11-16T03:50:13.392Z,11.00
2022-11-16T03:52:42.017Z,11.00
2022-11-16T03:55:10.528Z,11.20
2022-11-16T03:57:38.667Z,11.20
2022-11-16T04:00:07.732Z,11.40
2022-11-16T04:02:41.373Z,11.20
2022-11-16T04:05:32.993Z,11.10
2022-11-16T04:08:18.426Z,11.40
2022-11-16T04:11:04.037Z,11.50
2022-11-16T04:13:52.001Z,11.50
2022-11-16T04:16:37.486Z,11.70
2022-11-16T04:19:26.966Z,11.50
2022-11-16T04:22:15.087Z,11.60
2022-11-16T04:24:44.834Z,11.60
2022-11-16T04:27:31.812Z,11.40
2022-11-16T04:30:04.789Z,11.30
2022-11-16T04:32:52.633Z,11.40
2022-11-16T04:35:43.563Z,11.60
2022-11-16T04:38:16.274Z,11.60
2022-11-16T04:40:44.451Z,11.50
2022-11-16T04:43:14.316Z,11.70
2022-11-16T04:46:02.165Z,11.70
2022-11-16T04:48:37.957Z,11.50
2022-11-16T04:51:06.316Z,11.40
2022-11-16T04:53:36.840Z,11.40
2022-11-16T04:56:16.416Z,11.20
2022-11-16T04:58:44.504Z,11.40
2022-11-16T05:01:12.714Z,11.50
2022-11-16T05:03:40.909Z,11.60
2022-11-16T05:06:09.009Z,11.50
2022-11-16T05:08:40.815Z,11.30
2022-11-16T05:11:08.985Z,11.50
2022-11-16T05:13:37.323Z,11.40
2022-11-16T05:16:05.577Z,11.30
2022-11-16T05:18:33.995Z,11.50
2022-11-16T05:21:02.541Z,11.50
2022-11-16T05:23:53.633Z,11.40
2022-11-16T05:26:25.597Z,11.30
2022-11-16T05:28:56.357Z,11.50
2022-11-16T05:31:24.414Z,11.60
2022-11-16T05:33:52.791Z,11.60
2022-11-16T05:36:21.247Z,11.60
2022-11-16T05:38:52.697Z,11.70
2022-11-16T05:41:27.027Z,11.80
2022-11-16T05:43:55.217Z,11.80
2022-11-16T05:46:25.627Z,11.90
2022-11-16T05:48:57.784Z,11.90
2022-11-16T05:51:26.804Z,11.70
2022-11-16T05:53:56.174Z,11.60
2022-11-16T05:56:25.020Z,11.60
2022-11-16T05:58:56.389Z,11.60
2022-11-16T06:01:24.502Z,11.70
2022-11-16T06:03:52.771Z,11.90
2022-11-16T06:06:21.074Z,11.80
2022-11-16T06:08:50.643Z,11.70
2022-11-16T06:11:24.045Z,11.80
2022-11-16T06:13:52.316Z,11.80
2022-11-16T06:16:21.954Z,11.70
2022-11-16T06:18:50.182Z,11.80
2022-11-16T06:21:19.725Z,11.90
2022-11-16T06:23:48.487Z,11.60
2022-11-16T06:26:16.615Z,11.80
2022-11-16T06:28:44.891Z,11.70
2022-11-16T06:31:13.525Z,11.80
2022-11-16T06:33:45.505Z,11.70
2022-11-16T06:36:24.440Z,11.70
2022-11-16T06:38:54.769Z,11.60
2022-11-16T06:41:23.870Z,11.70
2022-11-16T06:43:52.655Z,11.70
2022-11-16T06:46:25.651Z,11.50
2022-11-16T06:48:57.401Z,11.70
2022-11-16T06:51:26.128Z,11.90
2022-11-16T06:53:54.325Z,12.00
2022-11-16T06:56:25.236Z,11.90
2022-11-16T06:58:56.933Z,11.80
2022-11-16T07:01:26.800Z,11.60
2022-11-16T07:04:01.920Z,11.50
2022-11-16T07:06:30.515Z,11.60
2022-11-16T07:08:59.160Z,11.80
2022-11-16T07:11:31.229Z,11.60
2022-11-16T07:14:00.416Z,11.30
2022-11-16T07:16:30.043Z,11.60
2022-11-16T07:19:03.178Z,11.80
2022-11-16T07:21:33.315Z,11.80
2022-11-16T07:24:05.423Z,11.50
2022-11-16T07:26:33.620Z,11.60
2022-11-16T07:29:10.160Z,11.60
2022-11-16T07:31:42.664Z,11.70
2022-11-16T07:34:50.780Z,11.90
2022-11-16T07:37:21.659Z,11.90
2022-11-16T07:39:52.726Z,11.90
2022-11-16T07:42:21.076Z,11.80
2022-11-16T07:45:08.341Z,11.90
2022-11-16T07:47:41.299Z,12.00
2022-11-16T07:50:16.235Z,12.10
2022-11-16T07:52:46.543Z,12.30
2022-11-16T07:55:21.463Z,12.10
2022-11-16T07:57:53.585Z,12.00
2022-11-16T08:00:24.576Z,12.10
2022-11-16T08:03:00.487Z,12.20
2022-11-16T08:05:30.397Z,12.10
2022-11-16T08:07:58.898Z,12.00
2022-11-16T08:10:27.927Z,12.20
2022-11-16T08:12:57.026Z,12.20
2022-11-16T08:15:26.673Z,12.10
2022-11-16T08:17:55.073Z,12.20
2022-11-16T08:20:25.976Z,12.10
2022-11-16T08:23:00.638Z,12.20
2022-11-16T08:25:30.373Z,11.90
2022-11-16T08:27:59.001Z,11.80
2022-11-16T08:30:28.183Z,12.10
2022-11-16T08:32:59.534Z,12.30
2022-11-16T08:35:30.030Z,12.20
2022-11-16T08:38:00.102Z,12.30
2022-11-16T08:40:31.078Z,12.30
2022-11-16T08:42:59.383Z,12.20
2022-11-16T08:45:30.379Z,11.90
2022-11-16T08:48:04.074Z,11.80
2022-11-16T08:50:55.457Z,11.90
2022-11-16T08:53:26.902Z,11.80
2022-11-16T08:55:55.209Z,11.90
2022-11-16T08:58:24.325Z,11.80
2022-11-16T09:00:52.702Z,11.90
2022-11-16T09:03:21.023Z,12.00
2022-11-16T09:05:49.607Z,12.10
2022-11-16T09:08:17.879Z,11.80
2022-11-16T09:10:47.642Z,11.90
2022-11-16T09:13:15.905Z,12.10
2022-11-16T09:15:44.768Z,12.20
2022-11-16T09:18:13.062Z,12.30
2022-11-16T09:20:45.454Z,12.20
2022-11-16T09:23:13.735Z,12.20
2022-11-16T09:25:42.166Z,12.20
2022-11-16T09:28:12.371Z,12.10
2022-11-16T09:30:44.320Z,11.80
2022-11-16T09:33:13.439Z,12.10
2022-11-16T09:35:44.349Z,12.00
2022-11-16T09:38:17.659Z,11.70
2022-11-16T09:40:52.517Z,11.90
2022-11-16T09:43:34.490Z,12.20
2022-11-16T09:46:18.006Z,12.10
2022-11-16T09:48:47.553Z,12.20
2022-11-16T09:51:17.511Z,12.00
2022-11-16T09:53:49.535Z,12.10
2022-11-16T09:56:23.336Z,12.10
2022-11-16T09:58:58.132Z,12.20
2022-11-16T10:01:30.859Z,11.90
2022-11-16T10:04:03.781Z,12.30
2022-11-16T10:06:42.907Z,12.70
2022-11-16T10:09:13.326Z,12.80
2022-11-16T10:12:00.085Z,12.70
2022-11-16T10:14:54.724Z,12.50
2022-11-16T10:17:29.170Z,12.40
2022-11-16T10:20:15.695Z,12.40
2022-11-16T10:22:52.573Z,12.30
2022-11-16T10:25:23.880Z,12.20
2022-11-16T10:28:18.108Z,12.40
2022-11-16T10:30:57.541Z,12.50
2022-11-16T10:33:35.685Z,12.40
2022-11-16T10:36:13.664Z,12.50
2022-11-16T10:38:43.590Z,12.50
2022-11-16T10:41:20.993Z,12.70
2022-11-16T10:43:50.199Z,12.50
2022-11-16T10:46:25.531Z,12.60
2022-11-16T10:49:01.779Z,12.70
2022-11-16T10:51:30.102Z,12.70
2022-11-16T10:54:00.809Z,12.60
2022-11-16T10:56:32.004Z,12.70
2022-11-16T10:59:02.543Z,12.50
2022-11-16T11:01:38.215Z,12.60
2022-11-16T11:04:16.704Z,12.40
2022-11-16T11:06:46.261Z,12.60
2022-11-16T11:09:23.665Z,12.70
2022-11-16T11:12:21.316Z,12.60
2022-11-16T11:15:27.123Z,12.70
2022-11-16T11:18:19.129Z,12.80
2022-11-16T11:20:50.372Z,12.70
2022-11-16T11:23:21.526Z,12.60
2022-11-16T11:25:55.884Z,12.30
2022-11-16T11:28:28.636Z,12.40
2022-11-16T11:31:00.836Z,12.50
2022-11-16T11:33:34.339Z,12.80
2022-11-16T11:36:06.263Z,12.80
2022-11-16T11:38:36.138Z,12.90
2022-11-16T11:41:06.176Z,12.60
2022-11-16T11:43:35.201Z,12.80
2022-11-16T11:46:13.071Z,12.50
2022-11-16T11:48:50.813Z,12.50
2022-11-16T11:51:25.386Z,12.50
2022-11-16T11:53:56.779Z,12.70
2022-11-16T11:56:26.316Z,12.60
2022-11-16T11:58:55.487Z,12.50
2022-11-16T12:01:51.386Z,12.40
2022-11-16T12:04:53.006Z,12.30
2022-11-16T12:07:36.908Z,12.30
2022-11-16T12:10:14.200Z,12.40
2022-11-16T12:12:54.816Z,12.60
2022-11-16T12:15:41.869Z,12.30
2022-11-16T12:18:29.951Z,12.30
2022-11-16T12:21:07.637Z,12.20
2022-11-16T12:23:58.482Z,12.40
2022-11-16T12:26:36.900Z,12.40
2022-11-16T12:29:21.672Z,12.50
2022-11-16T12:32:19.895Z,12.60
2022-11-16T12:35:01.547Z,12.20
2022-11-16T12:37:41.719Z,12.30
2022-11-16T12:40:34.710Z,12.40
2022-11-16T12:43:14.498Z,12.50
2022-11-16T12:45:51.884Z,12.40
2022-11-16T12:48:59.213Z,12.40
2022-11-16T12:51:40.050Z,12.20
2022-11-16T12:54:37.990Z,12.00
2022-11-16T12:57:13.524Z,11.90
2022-11-16T13:00:03.316Z,12.20
2022-11-16T13:02:52.159Z,12.20
2022-11-16T13:05:22.980Z,12.40
2022-11-16T13:07:54.879Z,12.50
2022-11-16T13:10:28.473Z,12.50
2022-11-16T13:13:34.985Z,12.50
2022-11-16T13:15:50.952Z,12.40
2022-11-16T13:18:22.566Z,12.30
2022-11-16T13:20:57.336Z,12.30
2022-11-16T13:23:36.367Z,12.10
2022-11-16T13:26:11.940Z,12.30
2022-11-16T13:28:51.865Z,12.50
2022-11-16T13:31:25.366Z,12.80
2022-11-16T13:33:58.250Z,12.60
2022-11-16T13:36:46.406Z,12.40
2022-11-16T13:39:21.935Z,12.60
2022-11-16T13:42:06.174Z,12.70
2022-11-16T13:44:35.305Z,12.80
2022-11-16T13:47:05.735Z,12.90
2022-11-16T13:49:36.607Z,12.90
2022-11-16T13:52:22.637Z,12.80
2022-11-16T13:54:56.958Z,12.80
2022-11-16T13:57:30.756Z,12.80
2022-11-16T14:00:13.223Z,12.70
2022-11-16T14:02:42.892Z,12.60
2022-11-16T14:05:40.036Z,12.60
2022-11-16T14:08:44.244Z,12.80
2022-11-16T14:11:32.114Z,12.20
2022-11-16T14:14:05.614Z,12.70
2022-11-16T14:16:44.879Z,12.70
2022-11-16T14:19:52.058Z,12.80
2022-11-16T14:22:52.499Z,12.90
2022-11-16T14:25:34.891Z,12.90
2022-11-16T14:28:24.692Z,12.50
2022-11-16T14:31:02.239Z,12.70
2022-11-16T14:33:34.623Z,12.80
2022-11-16T14:36:09.444Z,12.90
2022-11-16T14:38:40.417Z,12.90
2022-11-16T14:41:19.431Z,12.60
2022-11-16T14:43:50.942Z,12.70
2022-11-16T14:46:24.090Z,12.90
2022-11-16T14:48:57.367Z,13.00
2022-11-16T14:51:30.823Z,12.90
2022-11-16T14:54:02.990Z,12.70
2022-11-16T14:56:31.436Z,12.80
2022-11-16T14:59:01.791Z,12.50
2022-11-16T15:01:34.877Z,12.60
2022-11-16T15:04:04.775Z,12.60
2022-11-16T15:06:40.175Z,12.70
2022-11-16T15:09:17.898Z,12.40
2022-11-16T15:12:07.840Z,12.60
2022-11-16T15:14:41.080Z,12.90
2022-11-16T15:17:17.689Z,12.80
2022-11-16T15:19:54.499Z,12.70
2022-11-16T15:22:26.102Z,12.90
2022-11-16T15:24:58.719Z,12.80
2022-11-16T15:27:36.744Z,13.00
2022-11-16T15:30:14.851Z,12.50
2022-11-16T15:32:48.779Z,12.70
2022-11-16T15:35:22.157Z,12.80
2022-11-16T15:38:00.873Z,12.60
2022-11-16T15:40:31.728Z,12.30
2022-11-16T15:43:04.877Z,12.50
2022-11-16T15:45:33.812Z,12.60
2022-11-16T15:48:04.990Z,12.70
2022-11-16T15:50:33.369Z,12.50
2022-11-16T15:53:01.680Z,12.20
2022-11-16T15:55:36.849Z,12.30
2022-11-16T15:58:15.428Z,12.40
2022-11-16T16:00:48.324Z,12.50
2022-11-16T16:03:24.586Z,12.60
2022-11-16T16:05:53.668Z,12.40
2022-11-16T16:08:31.356Z,12.30
2022-11-16T16:11:01.909Z,12.30
2022-11-16T16:13:33.965Z,12.10
2022-11-16T16:16:26.151Z,12.00
2022-11-16T16:18:59.073Z,11.90
2022-11-16T16:21:40.665Z,12.00
2022-11-16T16:24:10.765Z,11.90
2022-11-16T16:26:39.279Z,12.00
2022-11-16T16:29:07.590Z,11.90
2022-11-16T16:31:38.364Z,11.90
2022-11-16T16:34:13.442Z,12.10
2022-11-16T16:36:41.691Z,12.20
2022-11-16T16:39:12.677Z,12.30
2022-11-16T16:41:41.320Z,12.30
2022-11-16T16:44:16.283Z,12.40
2022-11-16T16:46:44.593Z,12.40
2022-11-16T16:49:14.274Z,12.30
2022-11-16T16:51:42.627Z,12.20
2022-11-16T16:54:15.191Z,12.10
2022-11-16T16:56:43.526Z,12.10
2022-11-16T16:59:14.542Z,11.80
2022-11-16T17:01:42.982Z,11.70
2022-11-16T17:04:11.596Z,11.80
2022-11-16T17:06:46.217Z,12.00
2022-11-16T17:09:14.997Z,11.90
2022-11-16T17:11:43.417Z,11.60
2022-11-16T17:14:12.074Z,11.80
2022-11-16T17:16:40.855Z,12.00
2022-11-16T17:19:09.300Z,12.00
2022-11-16T17:21:37.742Z,12.20
2022-11-16T17:24:07.894Z,12.00
2022-11-16T17:26:36.286Z,12.00
2022-11-16T17:29:04.860Z,12.10
2022-11-16T17:31:33.211Z,11.90
2022-11-16T17:34:01.688Z,11.80
2022-11-16T17:36:30.115Z,12.00
2022-11-16T17:38:59.710Z,11.90
2022-11-16T17:41:32.133Z,11.80
2022-11-16T17:44:00.456Z,11.80
2022-11-16T17:46:29.191Z,11.80
2022-11-16T17:48:57.825Z,11.90
2022-11-16T17:51:27.913Z,11.90
2022-11-16T17:53:56.296Z,11.90
2022-11-16T17:56:27.042Z,11.80
2022-11-16T17:58:58.499Z,11.80
2022-11-16T18:01:28.215Z,11.60
2022-11-16T18:03:56.796Z,11.60
2022-11-16T18:06:26.247Z,11.60
2022-11-16T18:08:55.494Z,11.50
2022-11-16T18:11:28.566Z,11.50
2022-11-16T18:16:56.876Z,11.30
2022-11-16T18:19:25.677Z,11.30
2022-11-16T18:21:56.121Z,11.40
2022-11-16T18:24:24.555Z,11.40
2022-11-16T19:08:00.522Z,11.20
2022-11-16T19:10:28.964Z,10.90
2022-11-16T19:12:57.486Z,10.70
2022-11-16T19:15:26.388Z,11.00
2022-11-16T19:18:19.879Z,11.20
2022-11-16T19:20:46.864Z,11.20
2022-11-16T19:23:16.630Z,11.00
2022-11-16T19:25:47.343Z,10.60
2022-11-16T19:28:15.679Z,10.80
2022-11-16T19:30:43.989Z,10.80
2022-11-16T19:33:16.218Z,10.70
2022-11-16T19:35:46.932Z,10.60
2022-11-16T19:38:16.692Z,10.80
2022-11-16T19:40:45.081Z,10.70
2022-11-16T19:43:13.454Z,10.80
2022-11-16T19:45:41.769Z,10.90
2022-11-16T19:48:12.142Z,10.80
2022-11-16T19:50:40.483Z,10.90
2022-11-16T19:53:11.020Z,11.10
2022-11-16T19:55:44.213Z,11.00
2022-11-16T19:58:12.587Z,11.20
2022-11-16T20:00:42.986Z,11.10
2022-11-16T20:03:11.362Z,10.80
2022-11-16T20:05:39.784Z,11.00
2022-11-16T20:08:08.209Z,11.00
2022-11-16T20:10:36.561Z,11.10
2022-11-16T20:13:06.314Z,10.80
2022-11-16T20:15:37.108Z,10.70
2022-11-16T20:18:05.803Z,10.90
2022-11-16T20:20:36.265Z,10.90
2022-11-16T20:23:04.597Z,11.00
2022-11-16T20:25:33.050Z,11.00
2022-11-16T20:28:01.476Z,10.80
2022-11-16T20:30:33.186Z,11.00
2022-11-16T20:33:01.526Z,10.60
2022-11-16T20:35:29.932Z,10.60
2022-11-16T20:37:58.282Z,10.70
2022-11-16T20:40:26.694Z,10.80
2022-11-16T20:42:59.137Z,10.70
2022-11-16T20:45:27.610Z,10.60
2022-11-16T20:47:57.295Z,10.80
2022-11-16T20:50:25.659Z,10.80
2022-11-16T20:52:54.031Z,10.70
2022-11-16T20:55:22.289Z,10.60
2022-11-16T20:57:50.574Z,10.50
2022-11-16T21:00:19.742Z,10.60
2022-11-16T21:02:48.090Z,10.70
2022-11-16T21:05:19.979Z,10.70
2022-11-16T21:07:48.114Z,10.60
2022-11-16T21:10:22.284Z,10.20
2022-11-16T21:13:07.792Z,10.20
2022-11-16T21:15:38.497Z,10.20
2022-11-16T21:18:06.611Z,10.40
2022-11-16T21:20:36.211Z,10.50
2022-11-16T21:23:04.252Z,10.40
2022-11-16T21:25:33.203Z,10.30
2022-11-16T21:28:01.486Z,10.20
2022-11-16T21:30:29.778Z,10.00
2022-11-16T21:32:58.056Z,10.10
2022-11-16T21:35:27.307Z,10.40
2022-11-16T21:37:59.343Z,10.60
2022-11-16T21:40:29.839Z,10.60
2022-11-16T21:42:58.363Z,10.50
2022-11-16T21:45:29.286Z,10.70
2022-11-16T21:47:58.126Z,10.70
2022-11-16T21:50:32.507Z,10.90
2022-11-16T21:53:02.393Z,10.60
2022-11-16T21:55:30.708Z,10.60
2022-11-16T21:57:59.745Z,10.20
2022-11-16T22:00:28.172Z,10.30
2022-11-16T22:02:56.783Z,10.40
2022-11-16T22:05:42.338Z,10.50
2022-11-16T22:08:12.871Z,10.50
2022-11-16T22:10:41.292Z,10.40
2022-11-16T22:13:09.616Z,10.20
2022-11-16T22:15:37.926Z,10.30
2022-11-16T22:18:06.620Z,10.50
2022-11-16T22:20:34.884Z,10.40
2022-11-16T22:23:03.273Z,10.30
2022-11-16T22:25:33.275Z,10.30
2022-11-16T22:30:51.973Z,10.20
2022-11-16T22:33:20.777Z,9.80
2022-11-16T22:35:51.159Z,10.00
2022-11-16T22:38:19.576Z,10.10
2022-11-16T22:40:52.712Z,10.00
2022-11-16T22:43:22.013Z,10.00
2022-11-16T22:45:50.553Z,10.10
2022-11-16T22:48:19.285Z,10.10
2022-11-16T22:50:47.594Z,10.00
2022-11-16T22:53:18.304Z,10.10
2022-11-16T22:55:46.583Z,10.10
2022-11-16T22:58:16.332Z,10.10
2022-11-16T23:00:44.716Z,10.10
2022-11-16T23:03:13.093Z,10.20
2022-11-16T23:05:41.422Z,10.10
2022-11-16T23:08:09.738Z,10.00
2022-11-16T23:10:58.334Z,9.90
2022-11-16T23:13:45.254Z,9.70
2022-11-16T23:16:13.543Z,9.70
2022-11-16T23:18:44.175Z,9.70
2022-11-16T23:21:29.735Z,9.50
2022-11-16T23:24:20.937Z,9.30
2022-11-16T23:27:06.737Z,9.50
2022-11-16T23:29:36.472Z,9.60
2022-11-16T23:32:04.947Z,9.20
2022-11-16T23:34:33.212Z,9.30
2022-11-16T23:37:04.608Z,9.30
2022-11-16T23:39:33.548Z,9.20
2022-11-16T23:42:19.027Z,9.40
2022-11-16T23:44:48.771Z,9.10
2022-11-16T23:47:17.098Z,9.30
2022-11-16T23:49:45.420Z,9.20
2022-11-16T23:52:13.502Z,9.30
2022-11-16T23:54:41.627Z,9.00
2022-11-16T23:57:09.758Z,9.10
2022-11-16T23:59:37.842Z,9.10
